sensor_id;sensor_type;location;lat;lon;timestamp;pressure;altitude;pressure_sealevel;temperature;humidity
64933;BME280;51446;53.850;10.662;2023-03-21T00:00:45;101507.31;;;7.57;100.00
64933;BME280;51446;53.850;10.662;2023-03-21T00:03:12;101508.13;;;7.56;100.00
64933;BME280;51446;53.850;10.662;2023-03-21T00:05:41;101504.66;;;7.55;100.00
64933;BME280;51446;53.850;10.662;2023-03-21T00:08:07;101507.38;;;7.58;100.00
64933;BME280;51446;53.850;10.662;2023-03-21T00:10:32;101510.91;;;7.60;100.00
64933;BME280;51446;53.850;10.662;2023-03-21T00:12:57;101500.31;;;7.56;100.00
64933;BME280;51446;53.850;10.662;2023-03-21T00:15:24;101501.84;;;7.51;100.00
64933;BME280;51446;53.850;10.662;2023-03-21T00:17:54;101505.47;;;7.54;100.00
64933;BME280;51446;53.850;10.662;2023-03-21T00:20:27;101501.72;;;7.47;100.00
64933;BME280;51446;53.850;10.662;2023-03-21T00:22:54;101496.16;;;7.61;100.00
64933;BME280;51446;53.850;10.662;2023-03-21T00:25:19;101496.69;;;7.52;100.00
64933;BME280;51446;53.850;10.662;2023-03-21T00:27:44;101495.53;;;7.67;100.00
64933;BME280;51446;53.850;10.662;2023-03-21T00:30:11;101488.41;;;7.62;100.00
64933;BME280;51446;53.850;10.662;2023-03-21T00:32:36;101490.91;;;7.59;100.00
64933;BME280;51446;53.850;10.662;2023-03-21T00:35:01;101487.56;;;7.63;100.00
64933;BME280;51446;53.850;10.662;2023-03-21T00:37:26;101481.22;;;7.79;100.00
64933;BME280;51446;53.850;10.662;2023-03-21T00:39:52;101480.97;;;7.73;100.00
64933;BME280;51446;53.850;10.662;2023-03-21T00:42:18;101482.41;;;7.65;100.00
64933;BME280;51446;53.850;10.662;2023-03-21T00:44:43;101479.75;;;7.63;100.00
64933;BME280;51446;53.850;10.662;2023-03-21T00:47:11;101482.66;;;7.71;100.00
64933;BME280;51446;53.850;10.662;2023-03-21T00:49:36;101475.56;;;7.69;100.00
64933;BME280;51446;53.850;10.662;2023-03-21T00:52:07;101474.69;;;7.68;100.00
64933;BME280;51446;53.850;10.662;2023-03-21T00:54:34;101472.31;;;7.74;100.00
64933;BME280;51446;53.850;10.662;2023-03-21T00:57:01;101473.94;;;7.71;100.00
64933;BME280;51446;53.850;10.662;2023-03-21T00:59:27;101472.34;;;7.53;100.00
64933;BME280;51446;53.850;10.662;2023-03-21T01:01:53;101459.31;;;7.53;100.00
64933;BME280;51446;53.850;10.662;2023-03-21T01:04:18;101464.69;;;7.56;100.00
64933;BME280;51446;53.850;10.662;2023-03-21T01:06:45;101476.09;;;7.60;100.00
64933;BME280;51446;53.850;10.662;2023-03-21T01:09:13;101470.06;;;7.61;100.00
64933;BME280;51446;53.850;10.662;2023-03-21T01:11:39;101466.69;;;7.63;100.00
64933;BME280;51446;53.850;10.662;2023-03-21T01:14:06;101469.22;;;7.62;100.00
64933;BME280;51446;53.850;10.662;2023-03-21T01:16:32;101464.38;;;7.71;100.00
64933;BME280;51446;53.850;10.662;2023-03-21T01:18:57;101472.75;;;7.62;100.00
64933;BME280;51446;53.850;10.662;2023-03-21T01:21:23;101465.19;;;7.70;100.00
64933;BME280;51446;53.850;10.662;2023-03-21T01:23:49;101458.38;;;7.74;100.00
64933;BME280;51446;53.850;10.662;2023-03-21T01:26:15;101464.19;;;7.67;100.00
64933;BME280;51446;53.850;10.662;2023-03-21T01:28:41;101467.50;;;7.62;100.00
64933;BME280;51446;53.850;10.662;2023-03-21T01:31:07;101468.03;;;7.54;100.00
64933;BME280;51446;53.850;10.662;2023-03-21T01:33:34;101459.69;;;7.62;100.00
64933;BME280;51446;53.850;10.662;2023-03-21T01:35:59;101464.91;;;7.62;100.00
64933;BME280;51446;53.850;10.662;2023-03-21T01:38:25;101459.06;;;7.47;100.00
64933;BME280;51446;53.850;10.662;2023-03-21T01:40:50;101464.09;;;7.63;100.00
64933;BME280;51446;53.850;10.662;2023-03-21T01:43:25;101465.66;;;7.60;100.00
64933;BME280;51446;53.850;10.662;2023-03-21T01:46:19;101462.34;;;7.64;100.00
64933;BME280;51446;53.850;10.662;2023-03-21T01:48:49;101460.97;;;7.51;100.00
64933;BME280;51446;53.850;10.662;2023-03-21T01:51:16;101455.66;;;7.71;100.00
64933;BME280;51446;53.850;10.662;2023-03-21T01:53:42;101456.75;;;7.77;100.00
64933;BME280;51446;53.850;10.662;2023-03-21T01:56:11;101458.78;;;7.62;100.00
64933;BME280;51446;53.850;10.662;2023-03-21T01:58:39;101457.78;;;7.58;100.00
64933;BME280;51446;53.850;10.662;2023-03-21T02:01:07;101447.94;;;7.74;100.00
64933;BME280;51446;53.850;10.662;2023-03-21T02:03:32;101440.06;;;7.72;100.00
64933;BME280;51446;53.850;10.662;2023-03-21T02:06:07;101437.50;;;7.74;100.00
64933;BME280;51446;53.850;10.662;2023-03-21T02:08:35;101434.78;;;7.71;100.00
64933;BME280;51446;53.850;10.662;2023-03-21T02:11:00;101441.41;;;7.62;100.00
64933;BME280;51446;53.850;10.662;2023-03-21T02:13:25;101441.34;;;7.61;100.00
64933;BME280;51446;53.850;10.662;2023-03-21T02:16:01;101439.63;;;7.61;100.00
64933;BME280;51446;53.850;10.662;2023-03-21T02:18:38;101442.34;;;7.64;100.00
64933;BME280;51446;53.850;10.662;2023-03-21T02:29:28;101436.19;;;7.62;100.00
64933;BME280;51446;53.850;10.662;2023-03-21T02:32:08;101429.28;;;7.64;100.00
64933;BME280;51446;53.850;10.662;2023-03-21T02:37:58;101431.75;;;7.60;100.00
64933;BME280;51446;53.850;10.662;2023-03-21T02:40:34;101425.75;;;7.62;100.00
64933;BME280;51446;53.850;10.662;2023-03-21T02:43:25;101427.66;;;7.44;100.00
64933;BME280;51446;53.850;10.662;2023-03-21T02:46:07;101432.31;;;7.53;100.00
64933;BME280;51446;53.850;10.662;2023-03-21T02:48:36;101419.53;;;7.36;100.00
64933;BME280;51446;53.850;10.662;2023-03-21T02:51:04;101422.00;;;7.33;100.00
64933;BME280;51446;53.850;10.662;2023-03-21T02:53:33;101424.88;;;7.39;100.00
64933;BME280;51446;53.850;10.662;2023-03-21T02:56:01;101424.50;;;7.53;100.00
64933;BME280;51446;53.850;10.662;2023-03-21T02:58:28;101422.00;;;7.33;100.00
64933;BME280;51446;53.850;10.662;2023-03-21T03:00:54;101417.75;;;7.35;100.00
64933;BME280;51446;53.850;10.662;2023-03-21T03:03:21;101418.94;;;7.43;100.00
64933;BME280;51446;53.850;10.662;2023-03-21T03:05:48;101428.22;;;7.37;100.00
64933;BME280;51446;53.850;10.662;2023-03-21T03:11:15;101421.09;;;7.33;100.00
64933;BME280;51446;53.850;10.662;2023-03-21T03:14:07;101421.94;;;7.32;100.00
64933;BME280;51446;53.850;10.662;2023-03-21T03:16:54;101419.22;;;7.28;100.00
64933;BME280;51446;53.850;10.662;2023-03-21T03:19:37;101421.06;;;7.31;100.00
64933;BME280;51446;53.850;10.662;2023-03-21T03:22:12;101419.59;;;7.38;100.00
64933;BME280;51446;53.850;10.662;2023-03-21T03:24:45;101414.97;;;7.31;100.00
64933;BME280;51446;53.850;10.662;2023-03-21T03:27:19;101417.94;;;7.19;100.00
64933;BME280;51446;53.850;10.662;2023-03-21T03:29:48;101412.28;;;7.29;100.00
64933;BME280;51446;53.850;10.662;2023-03-21T03:32:28;101404.53;;;7.31;100.00
64933;BME280;51446;53.850;10.662;2023-03-21T03:34:56;101408.66;;;7.25;100.00
64933;BME280;51446;53.850;10.662;2023-03-21T03:37:24;101406.09;;;7.27;100.00
64933;BME280;51446;53.850;10.662;2023-03-21T03:40:05;101402.03;;;7.34;100.00
64933;BME280;51446;53.850;10.662;2023-03-21T03:43:00;101400.78;;;7.24;100.00
64933;BME280;51446;53.850;10.662;2023-03-21T03:45:33;101402.28;;;7.19;100.00
64933;BME280;51446;53.850;10.662;2023-03-21T03:50:43;101401.25;;;7.36;100.00
64933;BME280;51446;53.850;10.662;2023-03-21T03:53:16;101400.28;;;7.34;100.00
64933;BME280;51446;53.850;10.662;2023-03-21T03:55:44;101404.59;;;7.32;100.00
64933;BME280;51446;53.850;10.662;2023-03-21T03:58:10;101396.16;;;7.39;100.00
64933;BME280;51446;53.850;10.662;2023-03-21T04:00:36;101404.09;;;7.20;100.00
64933;BME280;51446;53.850;10.662;2023-03-21T04:03:02;101403.72;;;7.10;100.00
64933;BME280;51446;53.850;10.662;2023-03-21T04:05:27;101402.88;;;7.11;100.00
64933;BME280;51446;53.850;10.662;2023-03-21T04:07:53;101396.19;;;7.18;100.00
64933;BME280;51446;53.850;10.662;2023-03-21T04:10:19;101400.78;;;7.24;100.00
64933;BME280;51446;53.850;10.662;2023-03-21T04:12:45;101402.38;;;7.20;100.00
64933;BME280;51446;53.850;10.662;2023-03-21T04:15:11;101399.88;;;7.23;100.00
64933;BME280;51446;53.850;10.662;2023-03-21T04:17:37;101396.50;;;7.26;100.00
64933;BME280;51446;53.850;10.662;2023-03-21T04:20:04;101395.84;;;7.32;100.00
64933;BME280;51446;53.850;10.662;2023-03-21T04:22:30;101401.78;;;7.27;100.00
64933;BME280;51446;53.850;10.662;2023-03-21T04:24:57;101396.44;;;7.24;100.00
64933;BME280;51446;53.850;10.662;2023-03-21T04:27:22;101396.81;;;7.34;100.00
64933;BME280;51446;53.850;10.662;2023-03-21T04:29:47;101399.09;;;7.26;100.00
64933;BME280;51446;53.850;10.662;2023-03-21T04:32:13;101395.19;;;7.37;100.00
64933;BME280;51446;53.850;10.662;2023-03-21T04:34:42;101393.22;;;7.32;100.00
64933;BME280;51446;53.850;10.662;2023-03-21T04:37:09;101397.59;;;7.10;100.00
64933;BME280;51446;53.850;10.662;2023-03-21T04:39:36;101397.94;;;7.18;100.00
64933;BME280;51446;53.850;10.662;2023-03-21T04:42:02;101395.19;;;7.15;100.00
64933;BME280;51446;53.850;10.662;2023-03-21T04:44:28;101394.22;;;7.12;100.00
64933;BME280;51446;53.850;10.662;2023-03-21T04:46:53;101390.63;;;7.09;100.00
64933;BME280;51446;53.850;10.662;2023-03-21T04:49:18;101387.16;;;7.10;100.00
64933;BME280;51446;53.850;10.662;2023-03-21T04:51:43;101384.84;;;6.95;100.00
64933;BME280;51446;53.850;10.662;2023-03-21T04:54:09;101388.41;;;6.97;100.00
64933;BME280;51446;53.850;10.662;2023-03-21T04:56:34;101388.50;;;6.99;100.00
64933;BME280;51446;53.850;10.662;2023-03-21T04:59:09;101382.00;;;6.89;100.00
64933;BME280;51446;53.850;10.662;2023-03-21T05:01:35;101388.72;;;7.05;100.00
64933;BME280;51446;53.850;10.662;2023-03-21T05:04:01;101388.34;;;6.95;100.00
64933;BME280;51446;53.850;10.662;2023-03-21T05:06:28;101387.50;;;6.97;100.00
64933;BME280;51446;53.850;10.662;2023-03-21T05:08:54;101380.44;;;6.94;100.00
64933;BME280;51446;53.850;10.662;2023-03-21T05:11:27;101388.34;;;6.95;100.00
64933;BME280;51446;53.850;10.662;2023-03-21T05:13:54;101389.53;;;7.04;100.00
64933;BME280;51446;53.850;10.662;2023-03-21T05:16:19;101381.25;;;6.91;100.00
64933;BME280;51446;53.850;10.662;2023-03-21T05:18:49;101380.56;;;6.97;100.00
64933;BME280;51446;53.850;10.662;2023-03-21T05:21:14;101387.81;;;7.04;100.00
64933;BME280;51446;53.850;10.662;2023-03-21T05:23:42;101381.78;;;7.05;100.00
64933;BME280;51446;53.850;10.662;2023-03-21T05:26:08;101386.63;;;6.96;100.00
64933;BME280;51446;53.850;10.662;2023-03-21T05:28:33;101392.16;;;7.04;100.00
64933;BME280;51446;53.850;10.662;2023-03-21T05:31:04;101386.06;;;7.03;100.00
64933;BME280;51446;53.850;10.662;2023-03-21T05:33:30;101391.97;;;6.99;100.00
64933;BME280;51446;53.850;10.662;2023-03-21T05:35:56;101387.81;;;7.04;100.00
64933;BME280;51446;53.850;10.662;2023-03-21T05:38:21;101388.66;;;7.03;100.00
64933;BME280;51446;53.850;10.662;2023-03-21T05:40:48;101387.13;;;7.08;100.00
64933;BME280;51446;53.850;10.662;2023-03-21T05:43:13;101383.56;;;7.06;100.00
64933;BME280;51446;53.850;10.662;2023-03-21T05:45:38;101380.38;;;7.14;100.00
64933;BME280;51446;53.850;10.662;2023-03-21T05:48:04;101384.72;;;7.13;100.00
64933;BME280;51446;53.850;10.662;2023-03-21T05:50:30;101384.56;;;7.10;100.00
64933;BME280;51446;53.850;10.662;2023-03-21T05:52:55;101378.34;;;7.06;100.00
64933;BME280;51446;53.850;10.662;2023-03-21T05:55:21;101380.38;;;7.14;100.00
64933;BME280;51446;53.850;10.662;2023-03-21T05:57:46;101377.75;;;7.14;100.00
64933;BME280;51446;53.850;10.662;2023-03-21T06:00:12;101379.66;;;7.18;100.00
64933;BME280;51446;53.850;10.662;2023-03-21T06:02:37;101380.66;;;7.21;100.00
64933;BME280;51446;53.850;10.662;2023-03-21T06:05:04;101381.88;;;7.29;100.00
64933;BME280;51446;53.850;10.662;2023-03-21T06:07:30;101374.91;;;7.30;100.00
64933;BME280;51446;53.850;10.662;2023-03-21T06:09:55;101385.59;;;7.36;100.00
64933;BME280;51446;53.850;10.662;2023-03-21T06:12:20;101383.06;;;7.38;100.00
64933;BME280;51446;53.850;10.662;2023-03-21T06:14:46;101379.97;;;7.25;100.00
64933;BME280;51446;53.850;10.662;2023-03-21T06:17:11;101384.47;;;7.29;100.00
64933;BME280;51446;53.850;10.662;2023-03-21T06:19:36;101382.84;;;7.33;100.00
64933;BME280;51446;53.850;10.662;2023-03-21T06:22:01;101377.13;;;7.42;100.00
64933;BME280;51446;53.850;10.662;2023-03-21T06:24:27;101375.94;;;7.34;100.00
64933;BME280;51446;53.850;10.662;2023-03-21T06:26:52;101379.44;;;7.34;100.00
64933;BME280;51446;53.850;10.662;2023-03-21T06:29:17;101371.72;;;7.37;100.00
64933;BME280;51446;53.850;10.662;2023-03-21T06:31:43;101379.78;;;7.43;100.00
64933;BME280;51446;53.850;10.662;2023-03-21T06:34:08;101373.13;;;7.52;100.00
64933;BME280;51446;53.850;10.662;2023-03-21T06:36:36;101367.84;;;7.50;100.00
64933;BME280;51446;53.850;10.662;2023-03-21T06:39:01;101365.72;;;7.62;100.00
64933;BME280;51446;53.850;10.662;2023-03-21T06:41:26;101368.72;;;7.73;100.00
64933;BME280;51446;53.850;10.662;2023-03-21T06:43:51;101375.34;;;7.63;100.00
64933;BME280;51446;53.850;10.662;2023-03-21T06:46:17;101368.97;;;7.79;100.00
64933;BME280;51446;53.850;10.662;2023-03-21T06:48:42;101363.31;;;7.69;100.00
64933;BME280;51446;53.850;10.662;2023-03-21T06:51:10;101374.34;;;7.84;100.00
64933;BME280;51446;53.850;10.662;2023-03-21T06:53:36;101371.72;;;7.84;100.00
64933;BME280;51446;53.850;10.662;2023-03-21T06:56:01;101364.44;;;7.75;100.00
64933;BME280;51446;53.850;10.662;2023-03-21T06:58:26;101365.28;;;7.74;100.00
64933;BME280;51446;53.850;10.662;2023-03-21T07:00:52;101361.84;;;7.75;100.00
64933;BME280;51446;53.850;10.662;2023-03-21T07:03:17;101369.94;;;7.83;100.00
64933;BME280;51446;53.850;10.662;2023-03-21T07:05:43;101368.22;;;7.84;100.00
64933;BME280;51446;53.850;10.662;2023-03-21T07:08:08;101371.84;;;7.87;100.00
64933;BME280;51446;53.850;10.662;2023-03-21T07:10:42;101360.22;;;8.03;100.00
64933;BME280;51446;53.850;10.662;2023-03-21T07:13:07;101367.38;;;8.09;100.00
64933;BME280;51446;53.850;10.662;2023-03-21T07:15:33;101366.81;;;8.18;100.00
64933;BME280;51446;53.850;10.662;2023-03-21T07:18:02;101362.31;;;8.13;100.00
64933;BME280;51446;53.850;10.662;2023-03-21T07:20:27;101364.41;;;7.98;100.00
64933;BME280;51446;53.850;10.662;2023-03-21T07:22:53;101359.28;;;8.01;100.00
64933;BME280;51446;53.850;10.662;2023-03-21T07:25:18;101362.97;;;8.08;100.00
64933;BME280;51446;53.850;10.662;2023-03-21T07:27:44;101355.88;;;8.04;100.00
64933;BME280;51446;53.850;10.662;2023-03-21T07:30:11;101362.22;;;8.10;100.00
64933;BME280;51446;53.850;10.662;2023-03-21T07:32:37;101365.66;;;8.09;100.00
64933;BME280;51446;53.850;10.662;2023-03-21T07:35:03;101361.75;;;8.22;100.00
64933;BME280;51446;53.850;10.662;2023-03-21T07:37:28;101366.53;;;8.34;100.00
64933;BME280;51446;53.850;10.662;2023-03-21T07:39:54;101354.81;;;8.23;100.00
64933;BME280;51446;53.850;10.662;2023-03-21T07:42:19;101354.50;;;8.39;100.00
64933;BME280;51446;53.850;10.662;2023-03-21T07:44:45;101354.91;;;8.26;100.00
64933;BME280;51446;53.850;10.662;2023-03-21T07:47:10;101341.22;;;8.33;100.00
64933;BME280;51446;53.850;10.662;2023-03-21T07:49:36;101347.53;;;8.40;100.00
64933;BME280;51446;53.850;10.662;2023-03-21T07:52:02;101339.78;;;8.41;100.00
64933;BME280;51446;53.850;10.662;2023-03-21T07:54:28;101337.88;;;8.37;100.00
64933;BME280;51446;53.850;10.662;2023-03-21T07:56:54;101347.66;;;8.43;100.00
64933;BME280;51446;53.850;10.662;2023-03-21T07:59:20;101349.63;;;8.48;100.00
64933;BME280;51446;53.850;10.662;2023-03-21T08:01:45;101351.66;;;8.57;100.00
64933;BME280;51446;53.850;10.662;2023-03-21T08:04:11;101346.31;;;8.54;100.00
64933;BME280;51446;53.850;10.662;2023-03-21T08:06:36;101346.31;;;8.54;100.00
64933;BME280;51446;53.850;10.662;2023-03-21T08:09:01;101342.31;;;8.65;100.00
64933;BME280;51446;53.850;10.662;2023-03-21T08:11:28;101349.09;;;8.59;100.00
64933;BME280;51446;53.850;10.662;2023-03-21T08:13:55;101344.88;;;8.64;100.00
64933;BME280;51446;53.850;10.662;2023-03-21T08:16:21;101350.13;;;8.64;100.00
64933;BME280;51446;53.850;10.662;2023-03-21T08:18:46;101342.22;;;8.62;100.00
64933;BME280;51446;53.850;10.662;2023-03-21T08:21:11;101346.13;;;8.75;100.00
64933;BME280;51446;53.850;10.662;2023-03-21T08:23:37;101344.34;;;8.74;100.00
64933;BME280;51446;53.850;10.662;2023-03-21T08:26:02;101341.69;;;8.73;100.00
64933;BME280;51446;53.850;10.662;2023-03-21T08:28:27;101345.44;;;8.81;100.00
64933;BME280;51446;53.850;10.662;2023-03-21T08:30:53;101347.78;;;8.72;100.00
64933;BME280;51446;53.850;10.662;2023-03-21T08:33:20;101345.13;;;8.70;100.00
64933;BME280;51446;53.850;10.662;2023-03-21T08:35:45;101341.50;;;8.66;100.00
64933;BME280;51446;53.850;10.662;2023-03-21T08:38:11;101345.91;;;8.67;100.00
64933;BME280;51446;53.850;10.662;2023-03-21T08:40:37;101345.25;;;8.75;100.00
64933;BME280;51446;53.850;10.662;2023-03-21T08:43:02;101342.91;;;8.57;100.00
64933;BME280;51446;53.850;10.662;2023-03-21T08:45:28;101346.63;;;8.63;100.00
64933;BME280;51446;53.850;10.662;2023-03-21T08:47:54;101343.00;;;8.60;100.00
64933;BME280;51446;53.850;10.662;2023-03-21T08:50:21;101342.13;;;8.59;100.00
64933;BME280;51446;53.850;10.662;2023-03-21T08:52:48;101349.19;;;8.62;100.00
64933;BME280;51446;53.850;10.662;2023-03-21T08:55:14;101345.75;;;8.63;100.00
64933;BME280;51446;53.850;10.662;2023-03-21T08:57:40;101338.94;;;8.68;100.00
64933;BME280;51446;53.850;10.662;2023-03-21T09:00:11;101348.09;;;8.82;100.00
64933;BME280;51446;53.850;10.662;2023-03-21T09:02:39;101341.94;;;8.80;100.00
64933;BME280;51446;53.850;10.662;2023-03-21T09:05:05;101345.22;;;8.73;100.00
64933;BME280;51446;53.850;10.662;2023-03-21T09:07:31;101347.56;;;8.65;100.00
64933;BME280;51446;53.850;10.662;2023-03-21T09:09:58;101345.91;;;8.67;100.00
64933;BME280;51446;53.850;10.662;2023-03-21T09:12:24;101345.56;;;8.58;100.00
64933;BME280;51446;53.850;10.662;2023-03-21T09:14:49;101342.38;;;8.67;100.00
64933;BME280;51446;53.850;10.662;2023-03-21T09:17:15;101346.88;;;8.71;100.00
64933;BME280;51446;53.850;10.662;2023-03-21T09:19:40;101338.84;;;8.65;100.00
64933;BME280;51446;53.850;10.662;2023-03-21T09:22:06;101345.34;;;8.78;100.00
64933;BME280;51446;53.850;10.662;2023-03-21T09:24:38;101335.25;;;8.90;100.00
64933;BME280;51446;53.850;10.662;2023-03-21T09:27:03;101338.13;;;8.98;100.00
64933;BME280;51446;53.850;10.662;2023-03-21T09:29:28;101332.56;;;8.87;100.00
64933;BME280;51446;53.850;10.662;2023-03-21T09:31:56;101350.22;;;8.94;100.00
64933;BME280;51446;53.850;10.662;2023-03-21T09:34:21;101334.44;;;8.91;100.00
64933;BME280;51446;53.850;10.662;2023-03-21T09:36:47;101329.56;;;9.02;100.00
64933;BME280;51446;53.850;10.662;2023-03-21T09:39:16;101336.50;;;9.01;100.00
64933;BME280;51446;53.850;10.662;2023-03-21T09:41:51;101333.19;;;9.07;100.00
64933;BME280;51446;53.850;10.662;2023-03-21T09:44:23;101331.34;;;9.05;100.00
64933;BME280;51446;53.850;10.662;2023-03-21T09:47:36;101326.28;;;9.09;100.00
64933;BME280;51446;53.850;10.662;2023-03-21T09:49:48;101325.16;;;9.01;100.00
64933;BME280;51446;53.850;10.662;2023-03-21T09:52:20;101327.94;;;9.07;100.00
64933;BME280;51446;53.850;10.662;2023-03-21T09:54:47;101320.00;;;9.04;100.00
64933;BME280;51446;53.850;10.662;2023-03-21T09:57:28;101323.72;;;9.11;100.00
64933;BME280;51446;53.850;10.662;2023-03-21T09:59:57;101324.50;;;9.08;100.00
64933;BME280;51446;53.850;10.662;2023-03-21T10:02:33;101318.22;;;9.03;100.00
64933;BME280;51446;53.850;10.662;2023-03-21T10:05:02;101311.31;;;9.05;100.00
64933;BME280;51446;53.850;10.662;2023-03-21T10:07:38;101310.31;;;9.01;100.00
64933;BME280;51446;53.850;10.662;2023-03-21T10:10:04;101316.91;;;9.17;100.00
64933;BME280;51446;53.850;10.662;2023-03-21T10:12:31;101320.41;;;9.16;100.00
64933;BME280;51446;53.850;10.662;2023-03-21T10:14:59;101320.44;;;9.18;100.00
64933;BME280;51446;53.850;10.662;2023-03-21T10:17:33;101317.88;;;9.19;100.00
64933;BME280;51446;53.850;10.662;2023-03-21T10:20:34;101310.97;;;9.23;100.00
64933;BME280;51446;53.850;10.662;2023-03-21T10:23:03;101309.31;;;9.25;100.00
64933;BME280;51446;53.850;10.662;2023-03-21T10:25:36;101305.19;;;9.33;100.00
64933;BME280;51446;53.850;10.662;2023-03-21T10:28:05;101301.56;;;9.28;100.00
64933;BME280;51446;53.850;10.662;2023-03-21T10:30:41;101302.84;;;9.43;100.00
64933;BME280;51446;53.850;10.662;2023-03-21T10:33:12;101301.31;;;9.49;100.00
64933;BME280;51446;53.850;10.662;2023-03-21T10:35:40;101296.16;;;9.52;100.00
64933;BME280;51446;53.850;10.662;2023-03-21T10:38:14;101302.19;;;9.50;100.00
64933;BME280;51446;53.850;10.662;2023-03-21T10:40:41;101295.59;;;9.64;100.00
64933;BME280;51446;53.850;10.662;2023-03-21T10:45:50;101303.56;;;9.69;100.00
64933;BME280;51446;53.850;10.662;2023-03-21T10:48:16;101297.75;;;9.79;100.00
64933;BME280;51446;53.850;10.662;2023-03-21T10:50:46;101279.09;;;9.67;100.00
64933;BME280;51446;53.850;10.662;2023-03-21T10:53:26;101290.72;;;9.77;100.00
64933;BME280;51446;53.850;10.662;2023-03-21T10:55:55;101287.34;;;9.82;100.00
64933;BME280;51446;53.850;10.662;2023-03-21T10:58:28;101281.19;;;9.80;100.00
64933;BME280;51446;53.850;10.662;2023-03-21T11:01:01;101285.47;;;9.77;100.00
64933;BME280;51446;53.850;10.662;2023-03-21T11:03:35;101282.94;;;9.80;100.00
64933;BME280;51446;53.850;10.662;2023-03-21T11:06:06;101284.88;;;9.87;100.00
64933;BME280;51446;53.850;10.662;2023-03-21T11:09:00;101282.28;;;9.88;100.00
64933;BME280;51446;53.850;10.662;2023-03-21T11:11:33;101278.53;;;9.79;100.00
64933;BME280;51446;53.850;10.662;2023-03-21T11:14:01;101276.03;;;9.83;100.00
64933;BME280;51446;53.850;10.662;2023-03-21T11:16:37;101276.81;;;9.81;100.00
64933;BME280;51446;53.850;10.662;2023-03-21T11:19:17;101277.94;;;9.89;100.00
64933;BME280;51446;53.850;10.662;2023-03-21T11:21:43;101272.63;;;9.86;100.00
64933;BME280;51446;53.850;10.662;2023-03-21T11:24:15;101271.94;;;9.93;100.00
64933;BME280;51446;53.850;10.662;2023-03-21T11:26:43;101275.47;;;9.95;100.00
64933;BME280;51446;53.850;10.662;2023-03-21T11:29:34;101276.56;;;10.03;100.00
64933;BME280;51446;53.850;10.662;2023-03-21T11:32:22;101270.44;;;10.03;100.00
64933;BME280;51446;53.850;10.662;2023-03-21T11:34:56;101268.69;;;10.03;100.00
64933;BME280;51446;53.850;10.662;2023-03-21T11:42:40;101257.56;;;10.12;100.00
64933;BME280;51446;53.850;10.662;2023-03-21T11:47:36;101264.03;;;9.92;100.00
64933;BME280;51446;53.850;10.662;2023-03-21T11:50:05;101255.16;;;9.86;100.00
64933;BME280;51446;53.850;10.662;2023-03-21T11:52:40;101253.19;;;9.78;100.00
64933;BME280;51446;53.850;10.662;2023-03-21T12:01:17;101254.31;;;9.87;100.00
64933;BME280;51446;53.850;10.662;2023-03-21T12:03:54;101246.59;;;9.94;100.00
64933;BME280;51446;53.850;10.662;2023-03-21T12:06:39;101245.69;;;9.92;100.00
64933;BME280;51446;53.850;10.662;2023-03-21T12:12:08;101239.16;;;10.09;100.00
64933;BME280;51446;53.850;10.662;2023-03-21T12:15:09;101232.06;;;10.05;100.00
64933;BME280;51446;53.850;10.662;2023-03-21T12:17:42;101229.34;;;10.02;100.00
64933;BME280;51446;53.850;10.662;2023-03-21T12:20:24;101224.97;;;10.01;100.00
64933;BME280;51446;53.850;10.662;2023-03-21T12:25:51;101218.84;;;10.00;100.00
64933;BME280;51446;53.850;10.662;2023-03-21T12:28:32;101205.72;;;9.99;100.00
64933;BME280;51446;53.850;10.662;2023-03-21T12:31:21;101211.94;;;10.04;100.00
64933;BME280;51446;53.850;10.662;2023-03-21T12:36:38;101209.13;;;9.96;100.00
64933;BME280;51446;53.850;10.662;2023-03-21T12:39:33;101208.16;;;9.91;100.00
64933;BME280;51446;53.850;10.662;2023-03-21T12:42:10;101201.91;;;9.87;100.00
64933;BME280;51446;53.850;10.662;2023-03-21T12:44:44;101212.50;;;9.92;100.00
64933;BME280;51446;53.850;10.662;2023-03-21T12:47:18;101201.91;;;9.87;100.00
64933;BME280;51446;53.850;10.662;2023-03-21T12:49:48;101193.13;;;9.84;100.00
64933;BME280;51446;53.850;10.662;2023-03-21T12:52:22;101196.75;;;9.90;100.00
64933;BME280;51446;53.850;10.662;2023-03-21T12:54:54;101186.41;;;9.97;100.00
64933;BME280;51446;53.850;10.662;2023-03-21T12:57:33;101192.47;;;9.93;100.00
64933;BME280;51446;53.850;10.662;2023-03-21T13:00:10;101185.47;;;9.93;100.00
64933;BME280;51446;53.850;10.662;2023-03-21T13:05:26;101178.91;;;10.11;100.00
64933;BME280;51446;53.850;10.662;2023-03-21T13:10:24;101162.25;;;10.07;100.00
64933;BME280;51446;53.850;10.662;2023-03-21T13:15:50;101161.69;;;10.20;100.00
64933;BME280;51446;53.850;10.662;2023-03-21T13:18:31;101156.09;;;10.06;100.00
64933;BME280;51446;53.850;10.662;2023-03-21T13:21:20;101160.59;;;10.12;100.00
64933;BME280;51446;53.850;10.662;2023-03-21T13:26:47;101150.34;;;10.21;100.00
64933;BME280;51446;53.850;10.662;2023-03-21T13:30:16;101148.66;;;10.25;100.00
64933;BME280;51446;53.850;10.662;2023-03-21T13:35:14;101143.72;;;10.36;100.00
64933;BME280;51446;53.850;10.662;2023-03-21T13:38:03;101136.81;;;10.39;100.00
64933;BME280;51446;53.850;10.662;2023-03-21T13:41:04;101133.50;;;10.48;100.00
64933;BME280;51446;53.850;10.662;2023-03-21T13:46:14;101136.66;;;10.74;100.00
64933;BME280;51446;53.850;10.662;2023-03-21T13:48:54;101130.31;;;10.62;100.00
64933;BME280;51446;53.850;10.662;2023-03-21T13:54:20;101122.31;;;10.57;100.00